Terminal Aerodrome Forecast
Issued by NWS Mt. Holly, NJ

Home | Current Version | Previous Version | Text Only | Print | Product List | Glossary On
Versions: 1 2 3 4 5 6 7 8 9 10 11 12 13 14 15 16 17 18
000
FTUS41 KPHI 202300
TAFRDG
TAF
KRDG 202327Z 2100/2124 01003KT P6SM BKN035
     FM210600 00000KT P6SM BKN035 BKN120
     FM211300 32004KT P6SM BKN035 BKN120
     FM211700 32005KT P6SM SCT040=

USA.gov is the U.S. government's official web portal to all federal, state and local government web resources and services.